Muncy, PA

3:32 PM EST on February 10, 2016 (GMT -0500)
K3LYC | | Change Station
CLOSE
Current Station
Personal Weather Station
Location: Muncy, PA
Elevation: 499 ft
Nearby Weather Stations

Elev 499 ft 41.21 °N, 76.78 °W | Updated 4 minutes ago

Overcast
Overcast
32.0 °F
Feels Like 25 °F
N
7.8
Wind Variable Wind from WNW

Today
High -- | Low -- °F
--% Chance of Precip.
Yesterday
High -- | Low -- °F
Precip. -- in
Pressure 29.70 in
Visibility 10.0 miles
Clouds Overcast 4500 ft
Windchill 25 °F
Dew Point 19 °F
Humidity 59%
Rainfall 0.00 in
Snow Depth Not available.
7:08 AM 5:34 PM
Waxing Crescent, 7% visible
METAR KIPT 101954Z 26013KT 10SM OVC045 M01/M08 A2969 RMK AO2 SLP058 T10111078 $
Pressure 29.70 in
Visibility 10.0 miles
Clouds Overcast 4500 ft
Windchill 25 °F
Dew Point 19 °F
Humidity 59%
Rainfall 0.00 in
Snow Depth Not available.
7:08 AM 5:34 PM
Waxing Crescent, 7% visible
METAR KIPT 101954Z 26013KT 10SM OVC045 M01/M08 A2969 RMK AO2 SLP058 T10111078 $

10-Day Weather Forecast

Almanac

Astronomy

Feb. 10, 2016 Rise Set
Actual Time
Civil Twilight
Nautical Twilight
Astronomical Twilight
Moon
Length of Visible Light
Length of Day
Tomorrow will be .
, % of the Moon is Illuminated

Today's Extremes

State Highs State Lows

Community

WunderPhotos

Upload Photos

1,891,943 photos uploaded!

WunderBlog® & News

Nearby

Air Quality

  Air Quality AQ Index Pollutant
Not available.

Snow Depth

Station Depth Elevation

Earthquake Activity

City Distance Mag. Time & Date
Minimum magnitude displayed is 2.5.

Coastal Water Temperatures

Place Temperature

Stations

Nearby Weather Stations

Station Location Temp. Windchill Dew Point Humidity Wind Precip. Elev Updated Type
                   

Watches & Warnings

There are currently no watches in effect.